createdAt,value
2023-03-11T00:00:13.065Z,81.05
2023-03-11T00:01:11.068Z,81.01
2023-03-11T00:02:11.117Z,80.94
2023-03-11T00:03:12.067Z,81.10
2023-03-11T00:04:11.068Z,81.10
2023-03-11T00:05:13.136Z,81.00
2023-03-11T00:06:11.069Z,81.02
2023-03-11T00:07:11.075Z,81.15
2023-03-11T00:08:14.072Z,81.14
2023-03-11T00:09:11.071Z,81.05
2023-03-11T00:10:15.072Z,81.02
2023-03-11T00:11:11.083Z,81.16
2023-03-11T00:12:11.070Z,81.13
2023-03-11T00:13:11.074Z,81.19
2023-03-11T00:14:11.079Z,81.07
2023-03-11T00:15:11.070Z,81.09
2023-03-11T00:16:11.145Z,81.03
2023-03-11T00:17:11.079Z,81.26
2023-03-11T00:18:11.070Z,81.32
2023-03-11T00:19:11.081Z,81.35
2023-03-11T00:20:16.076Z,81.21
2023-03-11T00:21:15.071Z,81.27
2023-03-11T00:22:11.068Z,81.17
2023-03-11T00:23:11.074Z,81.20
2023-03-11T00:24:11.074Z,81.38
2023-03-11T00:25:11.087Z,81.48
2023-03-11T00:26:11.071Z,81.52
2023-03-11T00:27:11.076Z,81.53
2023-03-11T00:28:11.138Z,81.24
2023-03-11T00:29:11.077Z,81.35
2023-03-11T00:30:11.075Z,81.34
2023-03-11T00:31:11.135Z,81.40
2023-03-11T00:32:11.079Z,81.34
2023-03-11T00:33:11.071Z,81.32
2023-03-11T00:34:11.090Z,81.31
2023-03-11T00:35:13.078Z,81.39
2023-03-11T00:36:21.068Z,81.83
2023-03-11T00:37:11.083Z,81.83
2023-03-11T00:38:12.072Z,81.60
2023-03-11T00:39:14.074Z,81.63
2023-03-11T00:40:14.066Z,81.61
2023-03-11T00:41:11.077Z,81.83
2023-03-11T00:42:11.080Z,81.80
2023-03-11T00:43:11.064Z,81.73
2023-03-11T00:44:11.083Z,81.79
2023-03-11T00:45:11.082Z,81.65
2023-03-11T00:46:11.152Z,81.80
2023-03-11T00:47:13.072Z,81.91
2023-03-11T00:48:11.076Z,82.06
2023-03-11T00:49:11.076Z,82.14
2023-03-11T00:50:13.069Z,82.10
2023-03-11T00:51:14.077Z,82.06
2023-03-11T00:52:11.066Z,81.99
2023-03-11T00:53:11.075Z,81.81
2023-03-11T00:54:11.071Z,81.73
2023-03-11T00:55:11.075Z,82.01
2023-03-11T00:56:13.069Z,82.10
2023-03-11T00:57:11.072Z,82.02
2023-03-11T00:58:11.070Z,82.05
2023-03-11T00:59:11.070Z,82.23
2023-03-11T01:00:13.070Z,82.21
2023-03-11T01:01:11.111Z,82.22
2023-03-11T01:02:11.064Z,82.18
2023-03-11T01:03:11.063Z,82.23
2023-03-11T01:04:11.127Z,82.06
2023-03-11T01:05:11.086Z,81.75
2023-03-11T01:06:11.065Z,81.84
2023-03-11T01:07:11.481Z,82.24
2023-03-11T01:08:11.063Z,82.59
2023-03-11T01:09:11.062Z,82.71
2023-03-11T01:10:11.072Z,82.66
2023-03-11T01:11:11.060Z,82.57
2023-03-11T01:12:11.072Z,82.42
2023-03-11T01:13:11.081Z,82.35
2023-03-11T01:14:11.062Z,82.46
2023-03-11T01:15:15.068Z,82.61
2023-03-11T01:16:11.110Z,82.71
2023-03-11T01:17:11.067Z,82.62
2023-03-11T01:18:11.068Z,82.39
2023-03-11T01:19:11.063Z,82.47
2023-03-11T01:20:12.066Z,82.17
2023-03-11T01:21:11.071Z,82.15
2023-03-11T01:22:11.067Z,82.16
2023-03-11T01:23:11.072Z,82.24
2023-03-11T01:24:11.068Z,82.31
2023-03-11T01:25:12.063Z,82.27
2023-03-11T01:26:11.086Z,82.35
2023-03-11T01:27:11.066Z,82.42
2023-03-11T01:28:11.064Z,82.23
2023-03-11T01:29:11.058Z,82.25
2023-03-11T01:30:12.064Z,82.22
2023-03-11T01:31:11.132Z,82.44
2023-03-11T01:32:11.238Z,82.31
2023-03-11T01:33:15.082Z,82.57
2023-03-11T01:34:11.067Z,82.44
2023-03-11T01:35:14.064Z,82.26
2023-03-11T01:36:11.062Z,82.35
2023-03-11T01:37:11.069Z,82.30
2023-03-11T01:38:11.060Z,82.34
2023-03-11T01:39:11.061Z,82.39
2023-03-11T01:40:15.062Z,82.43
2023-03-11T01:41:11.063Z,82.30
2023-03-11T01:42:11.059Z,82.40
2023-03-11T01:43:19.062Z,82.47
2023-03-11T01:44:12.072Z,82.53
2023-03-11T01:45:21.062Z,82.56
2023-03-11T01:46:23.158Z,82.44
2023-03-11T01:47:21.075Z,82.52
2023-03-11T01:48:11.062Z,82.45
2023-03-11T01:49:13.061Z,82.49
2023-03-11T01:50:12.060Z,82.59
2023-03-11T01:51:11.063Z,82.57
2023-03-11T01:52:11.058Z,82.61
2023-03-11T01:53:11.060Z,82.52
2023-03-11T01:54:20.062Z,82.29
2023-03-11T01:55:12.069Z,82.19
2023-03-11T01:56:11.064Z,82.20
2023-03-11T01:57:12.057Z,82.05
2023-03-11T01:58:14.058Z,82.24
2023-03-11T01:59:12.066Z,82.30
2023-03-11T02:00:11.063Z,82.23
2023-03-11T02:01:11.062Z,82.32
2023-03-11T02:02:19.057Z,82.38
2023-03-11T02:03:20.193Z,82.46
2023-03-11T02:04:11.061Z,82.33
2023-03-11T02:05:11.059Z,82.31
2023-03-11T02:06:13.075Z,82.29
2023-03-11T02:07:11.059Z,82.25
2023-03-11T02:08:11.074Z,82.48
2023-03-11T02:09:11.059Z,82.41
2023-03-11T02:10:11.062Z,82.39
2023-03-11T02:11:11.069Z,82.49
2023-03-11T02:12:11.061Z,82.53
2023-03-11T02:13:11.064Z,82.42
2023-03-11T02:14:11.070Z,82.29
2023-03-11T02:15:11.064Z,81.99
2023-03-11T02:16:11.097Z,82.29
2023-03-11T02:17:11.086Z,82.14
2023-03-11T02:18:12.066Z,82.26
2023-03-11T02:19:21.061Z,82.30
2023-03-11T02:20:19.066Z,82.48
2023-03-11T02:21:19.080Z,82.27
2023-03-11T02:22:13.087Z,82.38
2023-03-11T02:23:11.064Z,82.68
2023-03-11T02:24:19.064Z,82.84
2023-03-11T02:25:21.090Z,83.10
2023-03-11T02:26:16.075Z,83.28
2023-03-11T02:27:12.067Z,83.56
2023-03-11T02:28:11.071Z,83.54
2023-03-11T02:29:11.082Z,83.44
2023-03-11T02:30:13.071Z,83.51
2023-03-11T02:31:11.122Z,83.61
2023-03-11T02:32:11.096Z,83.59
2023-03-11T02:33:11.071Z,83.91
2023-03-11T02:34:17.071Z,83.77
2023-03-11T02:35:11.070Z,83.63
2023-03-11T02:36:21.080Z,83.61
2023-03-11T02:37:11.073Z,83.57
2023-03-11T02:38:11.072Z,83.46
2023-03-11T02:39:11.082Z,83.58
2023-03-11T02:40:19.068Z,83.43
2023-03-11T02:41:11.069Z,83.31
2023-03-11T02:42:16.073Z,83.23
2023-03-11T02:43:13.072Z,83.13
2023-03-11T02:44:12.071Z,83.12
2023-03-11T02:45:13.068Z,83.14
2023-03-11T02:46:11.075Z,83.08
2023-03-11T02:47:11.067Z,82.99
2023-03-11T02:48:12.072Z,82.86
2023-03-11T02:49:11.080Z,82.79
2023-03-11T02:50:11.099Z,82.75
2023-03-11T02:51:11.068Z,82.75
2023-03-11T02:52:11.072Z,82.75
2023-03-11T02:53:11.065Z,82.52
2023-03-11T02:54:11.065Z,82.62
2023-03-11T02:55:11.066Z,82.66
2023-03-11T02:56:11.065Z,82.53
2023-03-11T02:57:11.064Z,82.49
2023-03-11T02:58:11.066Z,82.25
2023-03-11T02:59:11.069Z,82.23
2023-03-11T03:00:15.086Z,82.49
2023-03-11T03:01:11.154Z,82.45
2023-03-11T03:02:11.065Z,82.19
2023-03-11T03:03:11.062Z,82.03
2023-03-11T03:04:11.102Z,82.25
2023-03-11T03:05:11.073Z,82.20
2023-03-11T03:06:11.067Z,82.16
2023-03-11T03:07:11.066Z,81.87
2023-03-11T03:08:11.073Z,82.20
2023-03-11T03:09:11.062Z,82.20
2023-03-11T03:10:11.063Z,82.18
2023-03-11T03:11:11.066Z,82.06
2023-03-11T03:12:11.059Z,81.99
2023-03-11T03:13:11.059Z,81.91
2023-03-11T03:14:11.073Z,82.10
2023-03-11T03:15:11.068Z,82.05
2023-03-11T03:16:11.105Z,81.98
2023-03-11T03:17:11.204Z,81.85
2023-03-11T03:18:11.062Z,81.83
2023-03-11T03:19:11.063Z,81.76
2023-03-11T03:20:15.068Z,81.74
2023-03-11T03:21:11.061Z,81.67
2023-03-11T03:22:11.062Z,81.51
2023-03-11T03:23:11.071Z,81.46
2023-03-11T03:24:11.062Z,81.52
2023-03-11T03:25:11.065Z,81.33
2023-03-11T03:26:12.065Z,81.05
2023-03-11T03:27:11.060Z,81.35
2023-03-11T03:28:11.063Z,81.45
2023-03-11T03:29:11.075Z,81.65
2023-03-11T03:30:11.068Z,81.83
2023-03-11T03:31:11.073Z,81.71
2023-03-11T03:32:11.072Z,81.65
2023-03-11T03:33:11.078Z,81.80
2023-03-11T03:34:11.069Z,81.69
2023-03-11T03:35:11.066Z,81.83
2023-03-11T03:36:11.126Z,81.75
2023-03-11T03:37:11.079Z,81.73
2023-03-11T03:38:11.070Z,81.83
2023-03-11T03:39:11.063Z,81.73
2023-03-11T03:40:13.068Z,81.79
2023-03-11T03:41:11.068Z,81.92
2023-03-11T03:42:11.065Z,81.78
2023-03-11T03:43:11.067Z,81.89
2023-03-11T03:44:11.069Z,81.91
2023-03-11T03:45:11.068Z,81.99
2023-03-11T03:46:11.121Z,82.06
2023-03-11T03:47:11.078Z,82.17
2023-03-11T03:48:11.065Z,82.26
2023-03-11T03:49:11.081Z,82.19
2023-03-11T03:50:11.072Z,82.37
2023-03-11T03:51:12.070Z,82.42
2023-03-11T03:52:11.066Z,82.33
2023-03-11T03:53:11.067Z,82.15
2023-03-11T03:54:11.066Z,82.30
2023-03-11T03:55:11.065Z,82.39
2023-03-11T03:56:11.074Z,82.26
2023-03-11T03:57:11.065Z,82.45
2023-03-11T03:58:11.068Z,82.48
2023-03-11T03:59:11.076Z,82.36
2023-03-11T04:00:12.072Z,82.33
2023-03-11T04:01:11.062Z,82.69
2023-03-11T04:02:11.129Z,82.52
2023-03-11T04:03:11.271Z,82.37
2023-03-11T04:04:11.063Z,82.26
2023-03-11T04:05:11.063Z,82.17
2023-03-11T04:06:15.061Z,82.31
2023-03-11T04:07:11.065Z,82.31
2023-03-11T04:08:11.063Z,82.34
2023-03-11T04:09:11.062Z,82.09
2023-03-11T04:10:11.077Z,81.87
2023-03-11T04:11:11.065Z,81.72
2023-03-11T04:12:15.061Z,81.78
2023-03-11T04:13:11.064Z,81.72
2023-03-11T04:14:11.063Z,81.67
2023-03-11T04:15:11.066Z,81.61
2023-03-11T04:16:13.072Z,81.50
2023-03-11T04:17:13.087Z,81.38
2023-03-11T04:18:11.072Z,81.40
2023-03-11T04:19:11.076Z,81.35
2023-03-11T04:20:14.065Z,81.43
2023-03-11T04:21:11.063Z,81.50
2023-03-11T04:22:11.066Z,81.53
2023-03-11T04:23:11.079Z,81.42
2023-03-11T04:24:11.065Z,81.42
2023-03-11T04:25:11.065Z,81.45
2023-03-11T04:26:11.066Z,81.38
2023-03-11T04:27:11.069Z,81.39
2023-03-11T04:28:11.065Z,81.20
2023-03-11T04:29:11.065Z,81.09
2023-03-11T04:30:11.058Z,81.19
2023-03-11T04:31:11.094Z,81.10
2023-03-11T04:32:11.061Z,81.15
2023-03-11T04:33:11.056Z,81.04
2023-03-11T04:34:11.069Z,80.98
2023-03-11T04:35:11.059Z,80.95
2023-03-11T04:36:11.055Z,81.00
2023-03-11T04:37:11.064Z,81.11
2023-03-11T04:38:11.058Z,81.01
2023-03-11T04:39:11.054Z,81.03
2023-03-11T04:40:11.120Z,81.22
2023-03-11T04:41:11.058Z,81.41
2023-03-11T04:42:11.057Z,81.48
2023-03-11T04:43:11.064Z,81.62
2023-03-11T04:44:11.056Z,81.46
2023-03-11T04:45:11.060Z,81.67
2023-03-11T04:46:11.106Z,81.77
2023-03-11T04:47:11.083Z,81.76
2023-03-11T04:48:11.052Z,81.75
2023-03-11T04:49:11.064Z,81.78
2023-03-11T04:50:11.056Z,81.90
2023-03-11T04:51:11.061Z,81.98
2023-03-11T04:52:11.068Z,81.64
2023-03-11T04:53:11.062Z,81.67
2023-03-11T04:54:11.063Z,81.49
2023-03-11T04:55:11.068Z,81.50
2023-03-11T04:56:11.063Z,81.49
2023-03-11T04:57:11.053Z,81.30
2023-03-11T04:58:11.093Z,81.24
2023-03-11T04:59:11.055Z,81.02
2023-03-11T05:00:15.055Z,81.09
2023-03-11T05:01:11.105Z,81.07
2023-03-11T05:02:12.878Z,81.13
2023-03-11T05:03:11.106Z,81.01
2023-03-11T05:04:11.157Z,80.87
2023-03-11T05:05:11.056Z,80.92
2023-03-11T05:06:11.066Z,80.63
2023-03-11T05:07:11.064Z,80.46
2023-03-11T05:08:11.056Z,80.51
2023-03-11T05:09:11.061Z,80.18
2023-03-11T05:10:11.077Z,80.43
2023-03-11T05:11:11.054Z,80.50
2023-03-11T05:12:12.060Z,80.53
2023-03-11T05:13:11.066Z,80.46
2023-03-11T05:14:11.056Z,80.47
2023-03-11T05:15:11.060Z,80.51
2023-03-11T05:16:11.132Z,80.47
2023-03-11T05:17:11.057Z,80.46
2023-03-11T05:18:11.057Z,80.37
2023-03-11T05:19:15.062Z,80.60
2023-03-11T05:20:15.093Z,80.57
2023-03-11T05:21:11.055Z,80.45
2023-03-11T05:22:11.069Z,80.48
2023-03-11T05:23:13.063Z,80.61
2023-03-11T05:24:11.057Z,80.80
2023-03-11T05:25:11.066Z,81.17
2023-03-11T05:26:11.058Z,81.20
2023-03-11T05:27:11.059Z,81.32
2023-03-11T05:28:11.067Z,81.58
2023-03-11T05:29:11.057Z,81.48
2023-03-11T05:30:11.061Z,81.54
2023-03-11T05:31:11.150Z,81.39
2023-03-11T05:32:11.059Z,81.25
2023-03-11T05:33:11.057Z,81.25
2023-03-11T05:34:11.067Z,81.24
2023-03-11T05:35:11.059Z,80.99
2023-03-11T05:36:11.062Z,80.90
2023-03-11T05:37:11.067Z,81.23
2023-03-11T05:38:11.060Z,81.32
2023-03-11T05:39:11.072Z,81.12
2023-03-11T05:40:11.080Z,81.35
2023-03-11T05:41:11.062Z,81.29
2023-03-11T05:42:11.065Z,81.17
2023-03-11T05:43:11.074Z,81.09
2023-03-11T05:44:11.064Z,81.02
2023-03-11T05:45:11.063Z,81.06
2023-03-11T05:46:11.148Z,81.03
2023-03-11T05:47:11.060Z,81.07
2023-03-11T05:48:11.064Z,81.08
2023-03-11T05:49:11.065Z,80.63
2023-03-11T05:50:11.061Z,80.53
2023-03-11T05:51:11.064Z,80.71
2023-03-11T05:52:11.065Z,80.71
2023-03-11T05:53:11.065Z,80.75
2023-03-11T05:54:15.314Z,80.83
2023-03-11T05:55:11.066Z,80.83
2023-03-11T05:56:11.062Z,80.87
2023-03-11T05:57:11.064Z,80.80
2023-03-11T05:58:11.099Z,80.82
2023-03-11T05:59:11.064Z,80.87
2023-03-11T06:00:11.063Z,80.78
2023-03-11T06:01:11.065Z,80.74
2023-03-11T06:02:11.061Z,80.72
2023-03-11T06:03:11.061Z,80.63
2023-03-11T06:04:11.169Z,80.54
2023-03-11T06:05:13.509Z,80.65
2023-03-11T06:06:11.059Z,80.35
2023-03-11T06:07:11.071Z,80.31
2023-03-11T06:08:11.060Z,80.20
2023-03-11T06:09:13.059Z,79.99
2023-03-11T06:10:11.067Z,79.87
2023-03-11T06:11:11.063Z,79.65
2023-03-11T06:12:11.060Z,79.50
2023-03-11T06:13:11.060Z,79.33
2023-03-11T06:14:12.064Z,79.00
2023-03-11T06:15:11.059Z,79.24
2023-03-11T06:16:11.113Z,79.57
2023-03-11T06:17:11.058Z,79.73
2023-03-11T06:18:11.059Z,79.68
2023-03-11T06:19:11.072Z,79.92
2023-03-11T06:20:11.063Z,79.90
2023-03-11T06:21:14.063Z,79.75
2023-03-11T06:22:11.062Z,80.01
2023-03-11T06:23:11.059Z,80.09
2023-03-11T06:24:11.067Z,80.06
2023-03-11T06:25:11.076Z,80.09
2023-03-11T06:26:11.071Z,80.15
2023-03-11T06:27:11.083Z,80.32
2023-03-11T06:28:11.066Z,80.43
2023-03-11T06:29:14.057Z,80.52
2023-03-11T06:30:11.064Z,80.63
2023-03-11T06:31:22.120Z,80.66
2023-03-11T06:32:11.062Z,80.74
2023-03-11T06:33:11.059Z,80.78
2023-03-11T06:34:11.065Z,80.89
2023-03-11T06:35:11.065Z,81.00
2023-03-11T06:36:11.132Z,81.00
2023-03-11T06:37:11.063Z,80.94
2023-03-11T06:38:11.062Z,80.97
2023-03-11T06:39:12.057Z,80.96
2023-03-11T06:40:11.077Z,80.85
2023-03-11T06:41:11.065Z,81.03
2023-03-11T06:42:13.079Z,81.18
2023-03-11T06:43:11.060Z,81.20
2023-03-11T06:44:11.064Z,81.17
2023-03-11T06:45:11.060Z,80.83
2023-03-11T06:46:17.156Z,80.83
2023-03-11T06:47:11.068Z,80.67
2023-03-11T06:48:11.060Z,80.58
2023-03-11T06:49:11.061Z,80.58
2023-03-11T06:50:12.092Z,80.62
2023-03-11T06:51:11.063Z,80.34
2023-03-11T06:52:11.064Z,80.39
2023-03-11T06:53:11.082Z,80.29
2023-03-11T06:54:11.062Z,80.26
2023-03-11T06:55:11.071Z,80.22
2023-03-11T06:56:11.114Z,79.95
2023-03-11T06:57:11.064Z,80.06
2023-03-11T06:58:11.062Z,79.97
2023-03-11T06:59:11.067Z,80.11
2023-03-11T07:00:11.068Z,80.33
2023-03-11T07:01:16.148Z,80.44
2023-03-11T07:02:15.075Z,80.41
2023-03-11T07:03:11.059Z,80.45
2023-03-11T07:04:11.143Z,80.53
2023-03-11T07:05:11.067Z,80.63
2023-03-11T07:06:15.058Z,80.71
2023-03-11T07:07:11.058Z,80.47
2023-03-11T07:08:11.067Z,80.37
2023-03-11T07:09:11.074Z,80.41
2023-03-11T07:10:11.064Z,80.58
2023-03-11T07:11:15.068Z,80.75
2023-03-11T07:12:11.062Z,80.72
2023-03-11T07:13:11.062Z,80.73
2023-03-11T07:14:11.072Z,80.86
2023-03-11T07:15:11.064Z,80.92
2023-03-11T07:16:12.096Z,80.86
2023-03-11T07:17:11.068Z,80.93
2023-03-11T07:18:11.059Z,80.80
2023-03-11T07:19:11.068Z,80.65
2023-03-11T07:20:11.074Z,80.34
2023-03-11T07:21:12.058Z,80.36
2023-03-11T07:22:11.065Z,80.29
2023-03-11T07:23:11.069Z,80.29
2023-03-11T07:24:12.059Z,80.21
2023-03-11T07:25:11.060Z,80.14
2023-03-11T07:26:11.071Z,79.22
2023-03-11T07:27:11.060Z,79.58
2023-03-11T07:28:11.067Z,79.65
2023-03-11T07:29:11.070Z,79.86
2023-03-11T07:30:11.068Z,79.64
2023-03-11T07:31:14.288Z,79.62
2023-03-11T07:32:11.077Z,79.72
2023-03-11T07:33:11.076Z,79.78
2023-03-11T07:34:11.078Z,79.79
2023-03-11T07:35:11.075Z,79.99
2023-03-11T07:36:15.059Z,79.92
2023-03-11T07:37:11.063Z,79.73
2023-03-11T07:38:11.068Z,79.55
2023-03-11T07:39:14.059Z,79.61
2023-03-11T07:40:11.069Z,79.45
2023-03-11T07:41:11.075Z,79.54
2023-03-11T07:42:11.063Z,79.37
2023-03-11T07:43:11.063Z,79.12
2023-03-11T07:44:12.070Z,78.83
2023-03-11T07:45:11.058Z,78.44
2023-03-11T07:46:14.284Z,78.53
2023-03-11T07:47:11.068Z,78.03
2023-03-11T07:48:11.067Z,77.34
2023-03-11T07:49:11.062Z,76.86
2023-03-11T07:50:11.070Z,76.88
2023-03-11T07:51:14.062Z,76.58
2023-03-11T07:52:11.062Z,76.53
2023-03-11T07:53:11.070Z,76.36
2023-03-11T07:54:11.068Z,76.12
2023-03-11T07:55:11.060Z,75.69
2023-03-11T07:56:11.067Z,75.80
2023-03-11T07:57:11.059Z,75.53
2023-03-11T07:58:11.071Z,75.08
2023-03-11T07:59:11.068Z,74.81
2023-03-11T08:00:11.069Z,74.97
2023-03-11T08:01:14.078Z,74.75
2023-03-11T08:02:11.103Z,74.85
2023-03-11T08:03:11.084Z,75.48
2023-03-11T08:04:13.985Z,75.52
2023-03-11T08:05:11.070Z,74.94
2023-03-11T08:06:15.074Z,74.86
2023-03-11T08:07:11.057Z,74.95
2023-03-11T08:08:11.073Z,74.70
2023-03-11T08:09:11.066Z,75.31
2023-03-11T08:10:11.063Z,75.50
2023-03-11T08:11:11.070Z,75.41
2023-03-11T08:12:11.061Z,75.27
2023-03-11T08:13:11.065Z,75.18
2023-03-11T08:14:11.068Z,74.78
2023-03-11T08:15:11.059Z,73.41
2023-03-11T08:16:11.216Z,73.57
2023-03-11T08:17:11.070Z,74.02
2023-03-11T08:18:11.201Z,73.07
2023-03-11T08:19:12.062Z,72.72
2023-03-11T08:20:12.063Z,72.84
2023-03-11T08:21:12.061Z,72.61
2023-03-11T08:22:11.063Z,72.27
2023-03-11T08:23:11.065Z,71.10
2023-03-11T08:24:12.074Z,71.67
2023-03-11T08:25:11.062Z,71.60
2023-03-11T08:26:11.063Z,71.62
2023-03-11T08:27:11.067Z,71.28
2023-03-11T08:28:11.070Z,70.20
2023-03-11T08:29:11.077Z,70.89
2023-03-11T08:30:11.059Z,70.70
2023-03-11T08:31:15.182Z,70.30
2023-03-11T08:32:11.068Z,70.93
2023-03-11T08:33:11.068Z,71.08
2023-03-11T08:34:11.065Z,70.37
2023-03-11T08:35:11.064Z,70.13
2023-03-11T08:36:11.125Z,70.83
2023-03-11T08:37:12.072Z,70.99
2023-03-11T08:38:11.073Z,71.07
2023-03-11T08:39:11.179Z,71.03
2023-03-11T08:40:11.073Z,70.75
2023-03-11T08:41:11.066Z,70.46
2023-03-11T08:42:11.063Z,70.46
2023-03-11T08:43:13.071Z,70.19
2023-03-11T08:44:11.062Z,70.04
2023-03-11T08:45:11.064Z,70.25
2023-03-11T08:46:20.134Z,70.28
2023-03-11T08:47:11.064Z,70.00
2023-03-11T08:48:12.059Z,69.88
2023-03-11T08:49:11.069Z,69.87
2023-03-11T08:50:13.079Z,70.11
2023-03-11T08:51:11.068Z,69.61
2023-03-11T08:52:11.068Z,69.66
2023-03-11T08:53:11.062Z,69.41
2023-03-11T08:54:11.065Z,69.72
2023-03-11T08:55:13.067Z,69.02
2023-03-11T08:56:11.060Z,69.45
2023-03-11T08:57:11.064Z,69.37
2023-03-11T08:58:11.085Z,69.15
2023-03-11T08:59:11.066Z,68.93
2023-03-11T09:00:13.049Z,68.92
2023-03-11T09:01:11.070Z,68.60
2023-03-11T09:02:11.063Z,68.25
2023-03-11T09:03:11.063Z,68.16
2023-03-11T09:04:11.088Z,68.25
2023-03-11T09:05:11.061Z,68.08
2023-03-11T09:06:12.171Z,68.39
2023-03-11T09:07:11.069Z,68.19
2023-03-11T09:08:11.061Z,67.26
2023-03-11T09:09:13.094Z,67.40
2023-03-11T09:10:13.063Z,67.54
2023-03-11T09:11:11.067Z,67.77
2023-03-11T09:12:11.102Z,67.66
2023-03-11T09:13:11.064Z,67.13
2023-03-11T09:14:11.061Z,67.75
2023-03-11T09:15:11.062Z,67.06
2023-03-11T09:16:15.111Z,66.84
2023-03-11T09:17:11.059Z,66.83
2023-03-11T09:18:13.096Z,66.72
2023-03-11T09:19:11.072Z,66.88
2023-03-11T09:20:12.061Z,66.54
2023-03-11T09:21:11.062Z,66.23
2023-03-11T09:22:11.064Z,66.26
2023-03-11T09:23:11.061Z,65.63
2023-03-11T09:24:11.071Z,65.03
2023-03-11T09:25:11.071Z,65.34
2023-03-11T09:26:11.062Z,65.58
2023-03-11T09:27:11.064Z,65.35
2023-03-11T09:28:11.081Z,65.15
2023-03-11T09:29:11.072Z,65.00
2023-03-11T09:30:11.072Z,64.81
2023-03-11T09:31:11.128Z,64.40
2023-03-11T09:32:12.063Z,64.26
2023-03-11T09:33:11.064Z,64.11
2023-03-11T09:34:11.074Z,63.70
2023-03-11T09:35:11.066Z,63.52
2023-03-11T09:36:14.070Z,63.46
2023-03-11T09:37:11.068Z,63.45
2023-03-11T09:38:11.067Z,62.58
2023-03-11T09:39:11.075Z,62.78
2023-03-11T09:40:18.068Z,62.52
2023-03-11T09:41:19.075Z,62.58
2023-03-11T09:42:19.067Z,62.07
2023-03-11T09:43:21.065Z,62.38
2023-03-11T09:44:23.093Z,61.77
2023-03-11T09:45:19.066Z,61.92
2023-03-11T09:46:19.112Z,61.92
2023-03-11T09:47:19.078Z,61.70
2023-03-11T09:48:22.751Z,62.00
2023-03-11T09:49:21.096Z,62.40
2023-03-11T09:50:15.094Z,62.09
2023-03-11T09:51:20.077Z,62.15
2023-03-11T09:52:21.099Z,62.54
2023-03-11T09:53:17.065Z,62.39
2023-03-11T09:54:13.096Z,62.24
2023-03-11T09:55:19.074Z,62.05
2023-03-11T09:56:18.083Z,61.91
2023-03-11T09:57:17.064Z,61.83
2023-03-11T09:58:18.067Z,61.90
2023-03-11T09:59:19.072Z,62.19
2023-03-11T10:00:17.092Z,61.36
2023-03-11T10:01:16.061Z,60.78
2023-03-11T10:02:14.277Z,61.07
2023-03-11T10:03:19.117Z,60.66
2023-03-11T10:04:16.061Z,61.28
2023-03-11T10:05:18.061Z,61.04
2023-03-11T10:06:19.081Z,60.93
2023-03-11T10:07:20.073Z,60.28
2023-03-11T10:08:22.074Z,60.72
2023-03-11T10:09:19.064Z,61.11
2023-03-11T10:10:14.074Z,60.47
2023-03-11T10:11:19.058Z,60.85
2023-03-11T10:12:21.066Z,59.88
2023-03-11T10:13:19.070Z,60.39
2023-03-11T10:14:24.065Z,60.19
2023-03-11T10:15:22.113Z,60.53
2023-03-11T10:16:21.135Z,60.24
2023-03-11T10:17:19.081Z,60.72
2023-03-11T10:18:19.070Z,60.47
2023-03-11T10:19:19.062Z,60.34
2023-03-11T10:20:19.066Z,60.91
2023-03-11T10:21:20.056Z,60.55
2023-03-11T10:22:21.063Z,61.04
2023-03-11T10:23:19.085Z,61.07
2023-03-11T10:24:21.088Z,60.57
2023-03-11T10:25:24.058Z,60.81
2023-03-11T10:26:19.063Z,60.85
2023-03-11T10:27:18.085Z,61.03
2023-03-11T10:28:16.069Z,61.07
2023-03-11T10:29:18.090Z,61.21
2023-03-11T10:30:22.071Z,61.54
2023-03-11T10:31:19.211Z,61.62
2023-03-11T10:32:18.109Z,61.17
2023-03-11T10:33:19.074Z,61.52
2023-03-11T10:34:21.066Z,60.79
2023-03-11T10:35:19.064Z,60.65
2023-03-11T10:36:16.062Z,60.87
2023-03-11T10:37:16.072Z,60.88
2023-03-11T10:38:19.063Z,60.81
2023-03-11T10:39:11.066Z,60.58
2023-03-11T10:40:19.064Z,60.47
2023-03-11T10:41:17.079Z,60.27
2023-03-11T10:42:19.074Z,60.35
2023-03-11T10:43:19.072Z,60.83
2023-03-11T10:44:19.068Z,60.66
2023-03-11T10:45:14.067Z,60.73
2023-03-11T10:46:19.122Z,60.44
2023-03-11T10:47:21.065Z,60.29
2023-03-11T10:48:15.076Z,60.09
2023-03-11T10:49:15.063Z,60.31
2023-03-11T10:50:18.096Z,60.24
2023-03-11T10:51:18.088Z,60.06
2023-03-11T10:52:11.060Z,60.31
2023-03-11T10:53:13.084Z,60.50
2023-03-11T10:54:15.066Z,60.38
2023-03-11T10:55:15.061Z,60.29
2023-03-11T10:56:19.064Z,60.46
2023-03-11T10:57:19.067Z,60.41
2023-03-11T10:58:14.110Z,60.70
2023-03-11T10:59:22.066Z,60.61
2023-03-11T11:00:23.065Z,60.50
2023-03-11T11:01:15.126Z,60.97
2023-03-11T11:02:19.067Z,61.08
2023-03-11T11:03:21.074Z,60.86
2023-03-11T11:04:19.123Z,60.68
2023-03-11T11:05:22.065Z,60.78
2023-03-11T11:06:19.070Z,60.37
2023-03-11T11:07:19.067Z,60.43
2023-03-11T11:08:15.075Z,60.84
2023-03-11T11:09:19.068Z,60.83
2023-03-11T11:10:19.140Z,61.17
2023-03-11T11:11:19.072Z,61.36
2023-03-11T11:12:15.076Z,60.83
2023-03-11T11:13:18.071Z,61.13
2023-03-11T11:14:11.069Z,61.02
2023-03-11T11:15:19.069Z,61.07
2023-03-11T11:16:20.109Z,60.81
2023-03-11T11:17:19.074Z,60.75
2023-03-11T11:18:16.071Z,61.18
2023-03-11T11:19:14.076Z,60.94
2023-03-11T11:20:18.081Z,61.42
2023-03-11T11:21:18.110Z,61.43
2023-03-11T11:22:16.069Z,61.22
2023-03-11T11:23:19.075Z,61.29
2023-03-11T11:24:19.075Z,61.05
2023-03-11T11:25:19.097Z,60.74
2023-03-11T11:26:15.077Z,60.82
2023-03-11T11:27:19.072Z,60.62
2023-03-11T11:28:18.085Z,60.91
2023-03-11T11:29:20.080Z,60.72
2023-03-11T11:30:15.096Z,61.15
2023-03-11T11:31:19.163Z,60.71
2023-03-11T11:32:22.182Z,60.64
2023-03-11T11:33:21.074Z,60.91
2023-03-11T11:34:19.085Z,60.84
2023-03-11T11:35:14.096Z,60.87
2023-03-11T11:36:15.091Z,60.84
2023-03-11T11:37:14.071Z,61.23
2023-03-11T11:38:11.088Z,61.74
2023-03-11T11:39:16.072Z,61.14
2023-03-11T11:40:22.078Z,61.06
2023-03-11T11:41:18.070Z,60.86
2023-03-11T11:42:13.088Z,60.64
2023-03-11T11:43:17.068Z,60.61
2023-03-11T11:44:14.076Z,60.79
2023-03-11T11:45:22.081Z,60.58
2023-03-11T11:46:21.144Z,60.76
2023-03-11T11:47:18.070Z,61.03
2023-03-11T11:48:19.066Z,61.33
2023-03-11T11:49:19.082Z,61.34
2023-03-11T11:50:17.113Z,61.11
2023-03-11T11:51:19.087Z,60.87
2023-03-11T11:52:13.091Z,60.98
2023-03-11T11:53:22.068Z,60.62
2023-03-11T11:54:19.071Z,61.03
2023-03-11T11:55:19.069Z,60.89
2023-03-11T11:56:11.081Z,60.93
2023-03-11T11:57:15.072Z,60.86
2023-03-11T11:58:12.068Z,61.06
2023-03-11T11:59:18.076Z,60.89
2023-03-11T12:00:23.083Z,61.10
2023-03-11T12:01:15.069Z,61.23
2023-03-11T12:02:21.079Z,60.57
2023-03-11T12:03:22.141Z,60.91
2023-03-11T12:04:24.067Z,60.83
2023-03-11T12:05:22.115Z,61.26
2023-03-11T12:06:21.076Z,61.42
2023-03-11T12:07:19.096Z,60.96
2023-03-11T12:08:19.068Z,61.21
2023-03-11T12:09:20.072Z,60.76
2023-03-11T12:10:23.701Z,61.00
2023-03-11T12:11:19.082Z,60.70
2023-03-11T12:12:19.077Z,61.03
2023-03-11T12:13:19.070Z,60.97
2023-03-11T12:14:19.077Z,60.98
2023-03-11T12:15:19.071Z,61.06
2023-03-11T12:16:22.085Z,61.18
2023-03-11T12:17:12.070Z,61.23
2023-03-11T12:18:21.070Z,61.47
2023-03-11T12:19:19.113Z,61.29
2023-03-11T12:20:21.081Z,61.26
2023-03-11T12:21:22.080Z,61.78
2023-03-11T12:22:19.074Z,61.74
2023-03-11T12:23:17.077Z,61.60
2023-03-11T12:24:19.073Z,61.78
2023-03-11T12:25:19.080Z,61.84
2023-03-11T12:26:19.114Z,61.63
2023-03-11T12:27:19.077Z,62.23
2023-03-11T12:28:21.071Z,61.93
2023-03-11T12:29:18.073Z,62.05
2023-03-11T12:30:19.075Z,62.21
2023-03-11T12:31:11.155Z,62.27
2023-03-11T12:32:15.085Z,62.13
2023-03-11T12:33:21.068Z,62.00
2023-03-11T12:34:13.102Z,62.53
2023-03-11T12:35:19.078Z,62.21
2023-03-11T12:36:19.070Z,62.35
2023-03-11T12:37:15.071Z,62.41
2023-03-11T12:38:19.073Z,62.21
2023-03-11T12:39:19.075Z,62.49
2023-03-11T12:40:19.071Z,62.79
2023-03-11T12:41:21.169Z,62.58
2023-03-11T12:42:20.075Z,62.66
2023-03-11T12:43:19.077Z,62.72
2023-03-11T12:44:19.074Z,62.49
2023-03-11T12:45:19.084Z,62.43
2023-03-11T12:46:14.120Z,62.46
2023-03-11T12:47:18.074Z,62.70
2023-03-11T12:48:19.082Z,62.89
2023-03-11T12:49:15.075Z,62.81
2023-03-11T12:50:19.072Z,62.75
2023-03-11T12:51:19.071Z,62.96
2023-03-11T12:52:17.074Z,63.05